Time;durP1;ratioP1;P1;durP2;ratioP2;P2;SDS_P1;SDS_P2;PMS_P1;PMS_P2;Temp;Humidity;BMP_temperature;BMP_pressure;BME280_temperature;BME280_humidity;BME280_pressure;Samples;Min_cycle;Max_cycle;Signal;HPM_P1;HPM_P2
2024/02/09 00:00:21;;;;;;;21.80;3.95;;;;;;;;;;5038034;28;20033;-69
2024/02/09 00:02:46;;;;;;;23.98;4.55;;;;;;;;;;5027252;28;20025;-69
2024/02/09 00:05:13;;;;;;;17.27;4.07;;;;;;;;;;5034812;28;20025;-69
2024/02/09 00:07:39;;;;;;;22.23;4.55;;;;;;;;;;5032128;28;20041;-69
2024/02/09 00:10:05;;;;;;;11.77;3.72;;;;;;;;;;5029318;28;20104;-69
2024/02/09 00:12:30;;;;;;;19.50;3.92;;;;;;;;;;5026216;28;20035;-69
2024/02/09 00:14:57;;;;;;;26.00;3.85;;;;;;;;;;5030369;28;20365;-69
2024/02/09 00:17:23;;;;;;;21.58;2.65;;;;;;;;;;5034533;28;20021;-69
2024/02/09 00:19:48;;;;;;;22.23;4.03;;;;;;;;;;5031283;28;20068;-69
2024/02/09 00:22:13;;;;;;;13.20;4.23;;;;;;;;;;5027592;28;20034;-69
2024/02/09 00:24:42;;;;;;;18.43;3.30;;;;;;;;;;5026632;28;20267;-69
2024/02/09 00:27:07;;;;;;;17.65;5.47;;;;;;;;;;5030603;28;20761;-69
2024/02/09 00:29:32;;;;;;;6.70;2.83;;;;;;;;;;5031502;28;20025;-69
2024/02/09 00:31:57;;;;;;;9.70;2.63;;;;;;;;;;5034537;28;20025;-69
2024/02/09 00:34:23;;;;;;;11.30;2.83;;;;;;;;;;5030108;28;20251;-69
2024/02/09 00:36:49;;;;;;;18.10;3.42;;;;;;;;;;5036247;28;20253;-69
2024/02/09 00:39:15;;;;;;;17.10;3.33;;;;;;;;;;5023250;28;20036;-69
2024/02/09 00:41:40;;;;;;;19.30;3.83;;;;;;;;;;5031711;28;20021;-69
2024/02/09 00:44:05;;;;;;;12.95;2.78;;;;;;;;;;5032750;28;20468;-69
2024/02/09 00:46:32;;;;;;;21.60;4.43;;;;;;;;;;5030029;28;20529;-69
2024/02/09 00:49:02;;;;;;;11.52;4.72;;;;;;;;;;5030780;28;20753;-69
2024/02/09 00:51:28;;;;;;;14.90;3.50;;;;;;;;;;5029834;28;20078;-69
2024/02/09 00:53:53;;;;;;;12.63;2.28;;;;;;;;;;5035866;28;20021;-69
2024/02/09 00:56:18;;;;;;;14.87;3.90;;;;;;;;;;5027543;28;20366;-69
2024/02/09 00:58:43;;;;;;;17.03;2.63;;;;;;;;;;5028796;28;20268;-69
2024/02/09 01:01:09;;;;;;;12.67;2.47;;;;;;;;;;5021991;28;20375;-69
2024/02/09 01:03:35;;;;;;;16.92;4.80;;;;;;;;;;5033373;28;20267;-69
2024/02/09 01:06:00;;;;;;;15.82;3.00;;;;;;;;;;5034031;28;20143;-69
2024/02/09 01:08:27;;;;;;;7.05;2.30;;;;;;;;;;5030953;28;20115;-69
2024/02/09 01:10:53;;;;;;;19.02;2.97;;;;;;;;;;5031148;28;20604;-69
2024/02/09 02:46:16;;;;;;;14.68;2.80;;;;;;;;;;5031688;28;20025;-69
2024/02/09 03:05:14;;;;;;;13.80;2.72;;;;;;;;;;5028926;28;20029;-69
2024/02/09 03:07:39;;;;;;;10.90;3.03;;;;;;;;;;5031457;28;20021;-69
2024/02/09 03:10:05;;;;;;;8.45;2.03;;;;;;;;;;5032115;28;20014;-69
2024/02/09 03:12:30;;;;;;;7.60;1.95;;;;;;;;;;5030701;28;20029;-69
2024/02/09 03:14:55;;;;;;;4.37;2.23;;;;;;;;;;5029454;28;20025;-69
2024/02/09 03:17:20;;;;;;;5.53;1.92;;;;;;;;;;5031426;28;20331;-69
2024/02/09 03:19:45;;;;;;;8.77;2.27;;;;;;;;;;5030521;28;20064;-69
2024/02/09 03:22:11;;;;;;;21.90;3.00;;;;;;;;;;5032264;28;20368;-69
2024/02/09 03:24:39;;;;;;;11.23;1.93;;;;;;;;;;5025302;28;20264;-69
2024/02/09 03:27:05;;;;;;;15.75;2.45;;;;;;;;;;5030055;28;20671;-69
2024/02/09 03:29:30;;;;;;;13.60;3.90;;;;;;;;;;5031236;28;20033;-69
2024/02/09 03:31:55;;;;;;;19.02;3.20;;;;;;;;;;5027536;28;20025;-69
2024/02/09 03:34:21;;;;;;;12.55;2.00;;;;;;;;;;5030680;28;20483;-69
2024/02/09 03:36:46;;;;;;;16.73;3.23;;;;;;;;;;5029550;28;20021;-69
2024/02/09 03:39:11;;;;;;;8.60;2.37;;;;;;;;;;5029502;28;20767;-69
2024/02/09 03:41:36;;;;;;;5.17;2.47;;;;;;;;;;5033523;28;20290;-69
2024/02/09 03:44:04;;;;;;;9.15;3.10;;;;;;;;;;5030569;28;20623;-69
2024/02/09 03:46:31;;;;;;;3.13;1.80;;;;;;;;;;5031584;28;20022;-69
2024/02/09 03:48:56;;;;;;;6.95;1.70;;;;;;;;;;5029847;28;20083;-69
2024/02/09 03:51:25;;;;;;;3.77;1.03;;;;;;;;;;5030373;28;20033;-69
2024/02/09 03:53:50;;;;;;;8.73;1.42;;;;;;;;;;5030050;28;20252;-69
2024/02/09 03:56:15;;;;;;;4.18;1.48;;;;;;;;;;5029518;28;20029;-69
2024/02/09 03:58:42;;;;;;;15.65;2.55;;;;;;;;;;5027971;28;20022;-69
2024/02/09 04:01:08;;;;;;;17.52;2.13;;;;;;;;;;5029857;28;20035;-69
2024/02/09 04:03:33;;;;;;;3.72;1.80;;;;;;;;;;5031095;28;20025;-69
2024/02/09 04:05:58;;;;;;;3.40;1.43;;;;;;;;;;5024607;28;20546;-69
2024/02/09 04:08:24;;;;;;;3.80;1.10;;;;;;;;;;5033638;28;20268;-69
2024/02/09 04:10:49;;;;;;;5.07;1.88;;;;;;;;;;5028454;28;20272;-69
2024/02/09 04:13:14;;;;;;;1.27;1.00;;;;;;;;;;5029515;28;20038;-69
2024/02/09 04:15:39;;;;;;;2.95;0.95;;;;;;;;;;5029573;28;20024;-70
2024/02/09 04:18:06;;;;;;;1.20;0.90;;;;;;;;;;5028858;28;20075;-69
2024/02/09 04:20:32;;;;;;;3.30;0.88;;;;;;;;;;5029676;28;20783;-69
2024/02/09 04:23:00;;;;;;;9.20;1.63;;;;;;;;;;5030272;28;20021;-69
2024/02/09 04:25:25;;;;;;;10.18;1.77;;;;;;;;;;5032306;28;20017;-69
2024/02/09 04:27:51;;;;;;;1.35;0.75;;;;;;;;;;5028531;28;20021;-70
2024/02/09 04:30:18;;;;;;;8.00;1.55;;;;;;;;;;5027717;28;20072;-69
2024/02/09 04:32:43;;;;;;;7.78;1.20;;;;;;;;;;5031468;28;20095;-69
2024/02/09 04:35:08;;;;;;;8.00;1.83;;;;;;;;;;5027666;28;20864;-69
2024/02/09 04:37:33;;;;;;;2.73;0.73;;;;;;;;;;5027906;28;20033;-69
2024/02/09 04:39:59;;;;;;;6.23;1.97;;;;;;;;;;5028030;28;20272;-69
2024/02/09 04:42:24;;;;;;;3.60;1.33;;;;;;;;;;5026689;28;20335;-69
2024/02/09 04:44:49;;;;;;;2.73;1.10;;;;;;;;;;5032541;28;20260;-69
2024/02/09 04:47:14;;;;;;;7.13;1.67;;;;;;;;;;5027735;28;20327;-69
2024/02/09 04:49:40;;;;;;;5.50;1.50;;;;;;;;;;5026067;28;20062;-69
2024/02/09 04:52:05;;;;;;;6.90;1.88;;;;;;;;;;5028955;28;20140;-69
2024/02/09 04:54:32;;;;;;;1.15;0.98;;;;;;;;;;5035917;28;20690;-69
2024/02/09 04:56:57;;;;;;;7.38;1.58;;;;;;;;;;5028614;28;20358;-69
2024/02/09 04:59:26;;;;;;;2.30;0.77;;;;;;;;;;5029253;28;20030;-69
2024/02/09 05:01:51;;;;;;;3.50;1.75;;;;;;;;;;5029062;28;20279;-69
2024/02/09 05:04:16;;;;;;;5.23;1.37;;;;;;;;;;5026953;28;20633;-69
2024/02/09 05:06:42;;;;;;;6.73;1.43;;;;;;;;;;5035711;28;20273;-69
2024/02/09 05:09:08;;;;;;;4.60;1.25;;;;;;;;;;5029737;28;20280;-69
2024/02/09 05:11:36;;;;;;;2.58;1.25;;;;;;;;;;5027343;28;20033;-69
2024/02/09 05:14:01;;;;;;;7.30;1.35;;;;;;;;;;5037457;28;20735;-69
2024/02/09 05:16:27;;;;;;;4.77;1.27;;;;;;;;;;5029075;28;20109;-69
2024/02/09 05:18:52;;;;;;;4.60;1.40;;;;;;;;;;5028373;28;20276;-70
2024/02/09 05:21:18;;;;;;;3.38;1.02;;;;;;;;;;5034095;28;20033;-69
2024/02/09 05:23:43;;;;;;;3.93;1.60;;;;;;;;;;5034720;28;20025;-69
2024/02/09 05:26:08;;;;;;;3.22;1.35;;;;;;;;;;5029151;28;20307;-69
2024/02/09 05:28:39;;;;;;;1.33;0.75;;;;;;;;;;5033539;28;20075;-69
2024/02/09 05:31:04;;;;;;;;;;;;;;;;;;5033674;28;20025;-69
2024/02/09 05:33:31;;;;;;;0.95;0.80;;;;;;;;;;5041650;28;19912;-69
2024/02/09 05:35:56;;;;;;;5.68;1.05;;;;;;;;;;5028647;28;20029;-69
2024/02/09 05:38:21;;;;;;;1.43;0.83;;;;;;;;;;5032707;28;20236;-69
2024/02/09 05:40:47;;;;;;;4.30;0.97;;;;;;;;;;5031313;28;20346;-69
2024/02/09 05:43:12;;;;;;;5.55;1.30;;;;;;;;;;5034536;28;20264;-69
2024/02/09 05:45:37;;;;;;;1.03;0.83;;;;;;;;;;5026751;28;20018;-69
2024/02/09 05:48:05;;;;;;;4.20;0.82;;;;;;;;;;5034837;28;20770;-69
2024/02/09 05:50:32;;;;;;;1.75;0.50;;;;;;;;;;5030459;28;20021;-69
2024/02/09 05:52:57;;;;;;;1.52;0.52;;;;;;;;;;5025735;28;20550;-69
2024/02/09 05:55:23;;;;;;;3.90;0.63;;;;;;;;;;5026309;28;20100;-69
2024/02/09 05:57:55;;;;;;;1.60;0.65;;;;;;;;;;5038402;28;20275;-69
2024/02/09 06:00:21;;;;;;;2.92;1.30;;;;;;;;;;5026913;28;20033;-70
2024/02/09 06:02:50;;;;;;;6.05;1.20;;;;;;;;;;5025818;28;20607;-69
2024/02/09 06:05:15;;;;;;;1.63;0.82;;;;;;;;;;5035519;28;20024;-69
2024/02/09 06:07:40;;;;;;;1.40;0.83;;;;;;;;;;5040020;28;20017;-69
2024/02/09 06:10:06;;;;;;;5.07;0.80;;;;;;;;;;5040080;28;20354;-69
2024/02/09 06:12:32;;;;;;;1.38;0.65;;;;;;;;;;5028430;28;20268;-69
2024/02/09 06:14:59;;;;;;;1.35;0.52;;;;;;;;;;5042965;28;20325;-69
2024/02/09 06:17:25;;;;;;;1.75;0.88;;;;;;;;;;5033099;28;20087;-69
2024/02/09 06:19:50;;;;;;;3.88;1.00;;;;;;;;;;5033107;28;20020;-69
2024/02/09 06:22:15;;;;;;;6.30;1.23;;;;;;;;;;5028596;28;20043;-69
2024/02/09 06:24:41;;;;;;;4.93;0.87;;;;;;;;;;5041002;28;20025;-69
2024/02/09 06:27:06;;;;;;;2.77;1.47;;;;;;;;;;5049103;28;20860;-69
2024/02/09 06:29:31;;;;;;;3.47;1.20;;;;;;;;;;5028596;28;20359;-69
2024/02/09 06:31:57;;;;;;;1.73;0.75;;;;;;;;;;5027212;28;20266;-69
2024/02/09 06:34:25;;;;;;;6.80;2.50;;;;;;;;;;5027309;28;20017;-69
2024/02/09 06:36:50;;;;;;;1.35;0.70;;;;;;;;;;5027861;28;20028;-69
2024/02/09 06:39:15;;;;;;;2.77;0.80;;;;;;;;;;5018100;28;20025;-69
2024/02/09 06:41:40;;;;;;;0.97;0.97;;;;;;;;;;5022532;28;20671;-69
2024/02/09 06:44:06;;;;;;;1.75;0.90;;;;;;;;;;5026619;28;20475;-69
2024/02/09 06:46:31;;;;;;;2.00;0.97;;;;;;;;;;5029578;28;20076;-69
2024/02/09 06:48:56;;;;;;;1.33;0.85;;;;;;;;;;5029177;28;20260;-69
2024/02/09 06:51:22;;;;;;;2.08;0.75;;;;;;;;;;5033070;28;20026;-69
2024/02/09 06:53:47;;;;;;;7.47;0.63;;;;;;;;;;5033800;28;20017;-69
2024/02/09 06:56:12;;;;;;;0.47;0.38;;;;;;;;;;5023579;28;20039;-69
2024/02/09 06:58:39;;;;;;;4.67;0.83;;;;;;;;;;5031787;28;20041;-69
2024/02/09 07:01:09;;;;;;;1.55;0.80;;;;;;;;;;5039085;28;20290;-69
2024/02/09 07:03:34;;;;;;;0.47;0.30;;;;;;;;;;5047709;28;20410;-69
2024/02/09 07:06:03;;;;;;;0.75;0.63;;;;;;;;;;5032830;28;20111;-69
2024/02/09 07:08:36;;;;;;;3.55;0.70;;;;;;;;;;5033742;28;20022;-69
2024/02/09 07:11:02;;;;;;;1.13;0.70;;;;;;;;;;5038938;28;20368;-69
2024/02/09 07:13:28;;;;;;;21.05;5.75;;;;;;;;;;5040480;28;20070;-69
2024/02/09 07:15:53;;;;;;;3.05;1.65;;;;;;;;;;5030237;28;20478;-69
2024/02/09 07:18:18;;;;;;;0.80;0.70;;;;;;;;;;5031168;28;20372;-69
2024/02/09 07:20:43;;;;;;;3.27;1.57;;;;;;;;;;5031373;28;20511;-69
2024/02/09 07:23:08;;;;;;;2.73;1.53;;;;;;;;;;5035062;28;20272;-69
2024/02/09 07:25:34;;;;;;;3.40;1.03;;;;;;;;;;5033414;28;20635;-69
2024/02/09 07:27:59;;;;;;;3.22;1.00;;;;;;;;;;5035298;28;20294;-69
2024/02/09 07:30:25;;;;;;;1.90;0.45;;;;;;;;;;5035623;28;20060;-69
2024/02/09 07:32:50;;;;;;;2.55;1.45;;;;;;;;;;5038904;28;20028;-69
2024/02/09 07:35:15;;;;;;;0.98;0.52;;;;;;;;;;5045526;28;20025;-69
2024/02/09 07:37:40;;;;;;;4.77;0.47;;;;;;;;;;5036997;28;20029;-69
2024/02/09 07:40:09;;;;;;;3.77;1.10;;;;;;;;;;5038026;28;20278;-69
2024/02/09 07:42:34;;;;;;;1.08;0.43;;;;;;;;;;5032649;28;20337;-69
2024/02/09 07:44:59;;;;;;;2.15;0.93;;;;;;;;;;5033780;28;20104;-69
2024/02/09 07:47:24;;;;;;;4.37;1.30;;;;;;;;;;5037368;28;20022;-70
2024/02/09 07:49:50;;;;;;;5.35;1.10;;;;;;;;;;5025165;28;20726;-70
2024/02/09 07:52:15;;;;;;;2.83;0.93;;;;;;;;;;5025053;28;20042;-70
2024/02/09 07:54:40;;;;;;;6.43;1.10;;;;;;;;;;5024533;28;20393;-70
2024/02/09 07:57:06;;;;;;;4.53;1.87;;;;;;;;;;5022729;28;20267;-70
2024/02/09 07:59:31;;;;;;;5.32;1.75;;;;;;;;;;5013693;28;20749;-70
2024/02/09 08:01:56;;;;;;;1.85;1.23;;;;;;;;;;5012346;28;20017;-70
2024/02/09 08:04:22;;;;;;;5.38;1.75;;;;;;;;;;5018149;28;20030;-70
2024/02/09 08:06:50;;;;;;;3.10;1.50;;;;;;;;;;5035876;28;20026;-70
2024/02/09 08:09:15;;;;;;;9.55;1.90;;;;;;;;;;5030366;28;20272;-70
2024/02/09 08:11:42;;;;;;;13.63;1.50;;;;;;;;;;5034028;28;20472;-70
2024/02/09 08:14:07;;;;;;;3.50;1.13;;;;;;;;;;5032418;28;20680;-70
2024/02/09 08:16:32;;;;;;;5.50;2.53;;;;;;;;;;5030933;28;20021;-70
2024/02/09 08:18:58;;;;;;;2.08;1.10;;;;;;;;;;5026284;28;20495;-69
2024/02/09 08:21:23;;;;;;;1.98;1.05;;;;;;;;;;5025990;28;20033;-69
2024/02/09 08:23:48;;;;;;;3.40;1.13;;;;;;;;;;5025237;28;20026;-69
2024/02/09 08:26:14;;;;;;;2.45;1.33;;;;;;;;;;5029841;28;20144;-70
2024/02/09 08:28:47;;;;;;;1.23;0.55;;;;;;;;;;5028085;28;20013;-69
2024/02/09 08:31:13;;;;;;;9.13;2.30;;;;;;;;;;5030853;28;20029;-69
2024/02/09 08:33:39;;;;;;;2.42;1.02;;;;;;;;;;5021366;28;20146;-70
2024/02/09 08:36:04;;;;;;;7.40;2.95;;;;;;;;;;5030727;28;20464;-68
2024/02/09 08:38:30;;;;;;;21.35;5.05;;;;;;;;;;5025732;28;20109;-70
2024/02/09 08:40:55;;;;;;;5.35;1.88;;;;;;;;;;5027412;28;20022;-69
2024/02/09 08:43:20;;;;;;;8.10;1.67;;;;;;;;;;5032025;28;20033;-69
2024/02/09 08:45:45;;;;;;;8.30;1.75;;;;;;;;;;5043632;28;20268;-69
2024/02/09 08:48:10;;;;;;;5.57;1.97;;;;;;;;;;5038329;28;20106;-69
2024/02/09 08:50:35;;;;;;;4.87;1.70;;;;;;;;;;5028675;28;20283;-69
2024/02/09 08:53:00;;;;;;;3.27;1.10;;;;;;;;;;5036911;28;20275;-70
2024/02/09 08:55:26;;;;;;;15.73;3.53;;;;;;;;;;5024621;28;20273;-69
2024/02/09 08:57:52;;;;;;;12.68;3.38;;;;;;;;;;5032270;28;20272;-69
2024/02/09 09:00:17;;;;;;;11.90;2.37;;;;;;;;;;5028871;28;20479;-69
2024/02/09 09:02:42;;;;;;;1.98;0.95;;;;;;;;;;5034568;28;20280;-69
2024/02/09 09:05:07;;;;;;;3.10;1.13;;;;;;;;;;5028276;28;20037;-70
2024/02/09 09:07:33;;;;;;;4.30;1.10;;;;;;;;;;5027749;28;20269;-69
2024/02/09 09:09:58;;;;;;;4.13;1.20;;;;;;;;;;5025242;28;20021;-69
2024/02/09 09:12:23;;;;;;;3.83;1.33;;;;;;;;;;5025770;28;20060;-69
2024/02/09 09:14:48;;;;;;;6.83;2.17;;;;;;;;;;5029574;28;20279;-69
2024/02/09 09:17:14;;;;;;;3.53;1.30;;;;;;;;;;5035641;28;20298;-69
2024/02/09 09:19:41;;;;;;;3.38;1.90;;;;;;;;;;5026244;28;20036;-69
2024/02/09 09:22:06;;;;;;;3.85;1.35;;;;;;;;;;5025323;28;20231;-69
2024/02/09 09:24:31;;;;;;;8.13;1.60;;;;;;;;;;5025468;28;20104;-70
2024/02/09 09:26:56;;;;;;;3.87;1.73;;;;;;;;;;5030797;28;20116;-69
2024/02/09 09:29:22;;;;;;;5.57;1.60;;;;;;;;;;5019658;28;20758;-69
2024/02/09 09:31:48;;;;;;;6.82;1.27;;;;;;;;;;5022120;28;20276;-69
2024/02/09 09:34:13;;;;;;;10.20;2.00;;;;;;;;;;5028954;28;20029;-69
2024/02/09 09:36:39;;;;;;;10.50;1.30;;;;;;;;;;5034270;28;20431;-69
2024/02/09 09:39:05;;;;;;;4.20;1.70;;;;;;;;;;5024136;28;20364;-69
2024/02/09 09:41:32;;;;;;;10.30;1.25;;;;;;;;;;5035440;28;20809;-69
2024/02/09 09:43:58;;;;;;;5.93;1.08;;;;;;;;;;5030270;28;20030;-69
2024/02/09 09:46:24;;;;;;;1.73;0.73;;;;;;;;;;5021259;28;20056;-69
2024/02/09 09:48:54;;;;;;;2.13;1.10;;;;;;;;;;5031848;28;20264;-69
2024/02/09 09:51:20;;;;;;;;;;;;;;;;;;5026464;28;20030;-69
2024/02/09 09:53:47;;;;;;;1.33;0.47;;;;;;;;;;5026476;28;19920;-70
2024/02/09 09:56:13;;;;;;;5.40;1.63;;;;;;;;;;5024685;28;20049;-69
2024/02/09 09:58:38;;;;;;;10.77;2.03;;;;;;;;;;5025829;28;20060;-70
2024/02/09 10:01:05;;;;;;;3.13;1.20;;;;;;;;;;5024347;28;20037;-69
2024/02/09 10:03:31;;;;;;;1.77;1.02;;;;;;;;;;5025533;28;20026;-69
2024/02/09 10:05:56;;;;;;;1.77;1.38;;;;;;;;;;5017052;28;20385;-69
2024/02/09 10:08:22;;;;;;;6.43;2.25;;;;;;;;;;5021498;28;20049;-69
2024/02/09 10:10:50;;;;;;;3.58;1.70;;;;;;;;;;5027714;28;20053;-69
2024/02/09 10:13:15;;;;;;;8.23;2.17;;;;;;;;;;5043303;28;20519;-69
2024/02/09 10:15:41;;;;;;;6.80;0.98;;;;;;;;;;5027113;28;20063;-69
2024/02/09 10:18:10;;;;;;;17.63;1.83;;;;;;;;;;5028596;28;20010;-69
2024/02/09 10:20:35;;;;;;;1.73;1.05;;;;;;;;;;5034509;28;20021;-70
2024/02/09 10:23:00;;;;;;;4.63;2.70;;;;;;;;;;5031216;28;20017;-69
2024/02/09 10:25:26;;;;;;;5.88;2.28;;;;;;;;;;5035989;28;20288;-69
2024/02/09 10:27:51;;;;;;;5.47;2.37;;;;;;;;;;5037175;28;20024;-69
2024/02/09 10:30:17;;;;;;;7.45;3.00;;;;;;;;;;5037837;28;20553;-69
2024/02/09 10:32:42;;;;;;;6.13;2.67;;;;;;;;;;5024873;28;20116;-69
2024/02/09 10:35:07;;;;;;;12.17;3.60;;;;;;;;;;5038245;28;20021;-70
2024/02/09 10:37:32;;;;;;;9.85;3.72;;;;;;;;;;5026934;28;20260;-69
2024/02/09 10:40:00;;;;;;;5.97;2.65;;;;;;;;;;5031210;28;20022;-69
2024/02/09 10:42:27;;;;;;;6.30;2.53;;;;;;;;;;5035045;28;20036;-69
2024/02/09 10:44:55;;;;;;;8.68;2.75;;;;;;;;;;5027495;28;20094;-69
2024/02/09 10:47:26;;;;;;;8.88;3.63;;;;;;;;;;5033013;28;20021;-69
2024/02/09 10:49:51;;;;;;;4.68;3.15;;;;;;;;;;5025419;28;20026;-69
2024/02/09 10:52:18;;;;;;;3.88;1.45;;;;;;;;;;5031435;28;20030;-69
2024/02/09 10:54:50;;;;;;;3.92;1.83;;;;;;;;;;5033852;28;20102;-69
2024/02/09 10:57:15;;;;;;;8.32;1.95;;;;;;;;;;5039112;28;20021;-69
2024/02/09 10:59:42;;;;;;;2.17;1.35;;;;;;;;;;5032912;28;20151;-69
2024/02/09 11:02:08;;;;;;;4.85;2.15;;;;;;;;;;5033564;28;20104;-69
2024/02/09 11:04:34;;;;;;;7.68;1.70;;;;;;;;;;5029442;28;20041;-69
2024/02/09 11:07:00;;;;;;;13.50;3.30;;;;;;;;;;5025833;28;20396;-69
2024/02/09 11:09:25;;;;;;;2.63;1.40;;;;;;;;;;5028301;28;20022;-69
2024/02/09 11:11:50;;;;;;;2.77;2.57;;;;;;;;;;5034944;28;20026;-69
2024/02/09 11:14:16;;;;;;;7.60;2.30;;;;;;;;;;5031607;28;20367;-69
2024/02/09 11:16:41;;;;;;;4.03;1.60;;;;;;;;;;5031120;28;20025;-69
2024/02/09 11:19:10;;;;;;;7.53;2.50;;;;;;;;;;5031256;28;20284;-69
2024/02/09 11:21:35;;;;;;;5.70;2.13;;;;;;;;;;5032825;28;20030;-69
2024/02/09 11:24:01;;;;;;;9.70;2.10;;;;;;;;;;5020153;28;20025;-69
2024/02/09 11:26:34;;;;;;;7.80;2.45;;;;;;;;;;5028022;28;20734;-69
2024/02/09 11:29:00;;;;;;;10.55;2.30;;;;;;;;;;5026982;28;20037;-69
2024/02/09 11:31:27;;;;;;;4.97;2.63;;;;;;;;;;5025471;28;20029;-69
2024/02/09 11:33:53;;;;;;;6.93;1.70;;;;;;;;;;5029124;28;20340;-69
2024/02/09 11:36:20;;;;;;;14.63;2.65;;;;;;;;;;5024965;28;20025;-69
2024/02/09 11:38:45;;;;;;;4.80;2.15;;;;;;;;;;5025726;28;20530;-69
2024/02/09 11:41:11;;;;;;;4.47;1.70;;;;;;;;;;5029197;28;20039;-69
2024/02/09 11:43:36;;;;;;;7.72;3.10;;;;;;;;;;5029520;28;20071;-69
2024/02/09 11:46:02;;;;;;;7.20;2.60;;;;;;;;;;5030425;28;20061;-69
2024/02/09 11:48:28;;;;;;;7.97;1.77;;;;;;;;;;5030619;28;20252;-69
2024/02/09 11:50:57;;;;;;;4.63;0.80;;;;;;;;;;5032493;28;20071;-69
2024/02/09 11:53:22;;;;;;;8.13;2.45;;;;;;;;;;5032845;28;20240;-69
2024/02/09 11:55:47;;;;;;;5.97;1.33;;;;;;;;;;5027267;28;20075;-69
2024/02/09 11:58:13;;;;;;;7.57;2.63;;;;;;;;;;5038924;28;20109;-69
2024/02/09 12:00:40;;;;;;;8.98;2.47;;;;;;;;;;5038393;28;20430;-69
2024/02/09 12:03:05;;;;;;;11.57;2.05;;;;;;;;;;5042401;28;20441;-69
2024/02/09 12:05:33;;;;;;;7.63;2.60;;;;;;;;;;5030457;28;20112;-69
2024/02/09 12:07:58;;;;;;;11.00;2.42;;;;;;;;;;5050300;28;20029;-70
2024/02/09 12:10:24;;;;;;;9.73;2.83;;;;;;;;;;5035464;28;20156;-69
2024/02/09 12:12:49;;;;;;;9.30;2.10;;;;;;;;;;5040252;28;20279;-69
2024/02/09 12:15:14;;;;;;;4.75;2.63;;;;;;;;;;5017527;28;20159;-69
2024/02/09 12:17:40;;;;;;;4.13;2.03;;;;;;;;;;5026641;28;20022;-69
2024/02/09 12:20:09;;;;;;;3.92;2.10;;;;;;;;;;5032979;28;20028;-69
2024/02/09 12:22:37;;;;;;;10.40;2.20;;;;;;;;;;5028533;28;20037;-69
2024/02/09 12:25:05;;;;;;;9.15;2.40;;;;;;;;;;5030462;28;20045;-70
2024/02/09 12:27:31;;;;;;;8.10;2.50;;;;;;;;;;5028208;28;20025;-69
2024/02/09 12:29:56;;;;;;;10.82;2.28;;;;;;;;;;5037808;28;20021;-69
2024/02/09 12:32:21;;;;;;;5.57;2.10;;;;;;;;;;5035431;28;20024;-69
2024/02/09 12:34:47;;;;;;;6.03;2.72;;;;;;;;;;5034044;28;20365;-69
2024/02/09 12:37:15;;;;;;;4.22;2.33;;;;;;;;;;5040184;28;20025;-69
2024/02/09 12:39:40;;;;;;;22.52;13.02;;;;;;;;;;5038017;28;20052;-69
2024/02/09 12:42:05;;;;;;;16.33;7.05;;;;;;;;;;5031589;28;20025;-69
2024/02/09 12:44:30;;;;;;;27.50;9.53;;;;;;;;;;5031572;28;20022;-69
2024/02/09 12:47:02;;;;;;;23.45;8.98;;;;;;;;;;5030076;28;20264;-69
2024/02/09 12:49:27;;;;;;;20.30;7.28;;;;;;;;;;5032069;28;20083;-69
2024/02/09 12:51:52;;;;;;;13.73;4.07;;;;;;;;;;5040605;28;20037;-70
2024/02/09 12:54:18;;;;;;;13.55;3.53;;;;;;;;;;5043905;28;20033;-69
2024/02/09 12:56:43;;;;;;;9.07;3.10;;;;;;;;;;5063106;28;20026;-69
2024/02/09 12:59:08;;;;;;;8.43;2.93;;;;;;;;;;5042681;28;20036;-69
2024/02/09 13:01:33;;;;;;;8.00;2.90;;;;;;;;;;5040584;28;20033;-69
2024/02/09 13:03:59;;;;;;;5.70;2.57;;;;;;;;;;5029799;28;20067;-69
2024/02/09 13:06:24;;;;;;;4.70;2.40;;;;;;;;;;5028219;28;20347;-69
2024/02/09 13:08:49;;;;;;;4.47;2.03;;;;;;;;;;5037568;28;20035;-69
2024/02/09 13:11:15;;;;;;;6.03;2.90;;;;;;;;;;5044776;28;20025;-70
2024/02/09 13:13:42;;;;;;;6.82;2.70;;;;;;;;;;5038183;28;20033;-69
2024/02/09 13:16:12;;;;;;;8.60;3.10;;;;;;;;;;5031256;28;20127;-69
2024/02/09 13:18:37;;;;;;;8.63;2.80;;;;;;;;;;5042771;28;20017;-69
2024/02/09 13:21:02;;;;;;;11.53;3.10;;;;;;;;;;5033427;28;20063;-69
2024/02/09 13:23:28;;;;;;;12.88;3.75;;;;;;;;;;5036722;28;20259;-69
2024/02/09 13:25:53;;;;;;;6.70;2.85;;;;;;;;;;5043105;28;20021;-69
2024/02/09 13:28:18;;;;;;;5.25;2.53;;;;;;;;;;5048218;28;20020;-69
2024/02/09 13:30:43;;;;;;;7.82;2.72;;;;;;;;;;5037586;28;20021;-69
2024/02/09 13:33:09;;;;;;;6.72;3.00;;;;;;;;;;5027045;28;20025;-69
2024/02/09 13:35:34;;;;;;;4.63;2.43;;;;;;;;;;5034146;28;20494;-69
2024/02/09 13:37:59;;;;;;;13.67;5.10;;;;;;;;;;5032814;28;20013;-69
2024/02/09 13:40:24;;;;;;;9.67;4.13;;;;;;;;;;5039878;28;20037;-69
2024/02/09 13:42:51;;;;;;;9.15;2.03;;;;;;;;;;5029199;28;20308;-69
2024/02/09 13:45:21;;;;;;;5.25;1.23;;;;;;;;;;5030840;28;20116;-69
2024/02/09 13:47:47;;;;;;;7.65;2.15;;;;;;;;;;5031804;28;20029;-70
2024/02/09 13:50:14;;;;;;;12.00;4.72;;;;;;;;;;5043181;28;20021;-69
2024/02/09 13:52:40;;;;;;;5.25;1.75;;;;;;;;;;5031835;28;20025;-69
2024/02/09 13:55:06;;;;;;;6.13;2.45;;;;;;;;;;5041708;28;20021;-69
2024/02/09 13:57:32;;;;;;;5.93;2.72;;;;;;;;;;5035236;28;20498;-69
2024/02/09 13:59:57;;;;;;;13.27;3.85;;;;;;;;;;5036714;28;20029;-69
2024/02/09 14:02:22;;;;;;;8.18;3.35;;;;;;;;;;5045439;28;20045;-69
2024/02/09 14:04:47;;;;;;;2.97;1.95;;;;;;;;;;5050296;28;20055;-69
2024/02/09 14:07:13;;;;;;;4.37;1.77;;;;;;;;;;5036323;28;20021;-70
2024/02/09 14:09:38;;;;;;;3.10;1.50;;;;;;;;;;5031879;28;20270;-69
2024/02/09 14:12:03;;;;;;;5.88;2.53;;;;;;;;;;5029573;28;20339;-69
2024/02/09 14:14:28;;;;;;;2.28;1.48;;;;;;;;;;5032164;28;20032;-69
2024/02/09 14:16:54;;;;;;;4.33;0.67;;;;;;;;;;5035677;28;20032;-69
2024/02/09 14:19:19;;;;;;;4.93;2.15;;;;;;;;;;5032156;28;20268;-69
2024/02/09 14:21:45;;;;;;;5.28;2.45;;;;;;;;;;5033240;28;20025;-69
2024/02/09 14:24:11;;;;;;;4.72;1.70;;;;;;;;;;5038924;28;20021;-69
2024/02/09 14:26:36;;;;;;;3.25;1.30;;;;;;;;;;5040066;28;20021;-67
2024/02/09 14:29:02;;;;;;;6.40;1.87;;;;;;;;;;5039416;28;20116;-68
2024/02/09 14:31:27;;;;;;;6.85;2.03;;;;;;;;;;5031532;28;20071;-67
2024/02/09 14:33:53;;;;;;;6.05;1.40;;;;;;;;;;5037661;28;20033;-67
2024/02/09 14:36:18;;;;;;;5.97;2.78;;;;;;;;;;5031514;28;20033;-67
2024/02/09 14:38:43;;;;;;;4.13;1.20;;;;;;;;;;5036379;28;20364;-67
2024/02/09 14:41:09;;;;;;;4.83;1.37;;;;;;;;;;5031951;28;20391;-67
2024/02/09 14:43:34;;;;;;;3.85;1.52;;;;;;;;;;5031796;28;20272;-67
2024/02/09 14:46:00;;;;;;;10.02;1.88;;;;;;;;;;5035724;28;20045;-67
2024/02/09 14:48:26;;;;;;;3.83;1.33;;;;;;;;;;5041743;28;20379;-67
2024/02/09 14:50:51;;;;;;;5.78;1.60;;;;;;;;;;5033898;28;20005;-67
2024/02/09 14:53:17;;;;;;;5.43;0.80;;;;;;;;;;5031792;28;20052;-67
2024/02/09 14:55:44;;;;;;;3.63;1.63;;;;;;;;;;5041005;28;20264;-67
2024/02/09 14:58:10;;;;;;;4.18;1.17;;;;;;;;;;5036964;28;20276;-67
2024/02/09 15:00:36;;;;;;;1.23;0.70;;;;;;;;;;5039079;28;20071;-67
2024/02/09 15:03:01;;;;;;;4.53;1.80;;;;;;;;;;5038268;28;20025;-67
2024/02/09 15:05:27;;;;;;;8.63;1.73;;;;;;;;;;5027655;28;20017;-67
2024/02/09 15:07:52;;;;;;;2.95;1.50;;;;;;;;;;5039471;28;20013;-69
2024/02/09 15:10:18;;;;;;;4.07;1.30;;;;;;;;;;5045497;28;20520;-69
2024/02/09 15:12:43;;;;;;;3.30;1.38;;;;;;;;;;5047784;28;20028;-69
2024/02/09 15:15:09;;;;;;;3.28;1.45;;;;;;;;;;5034003;28;20662;-69
2024/02/09 15:17:36;;;;;;;8.82;1.88;;;;;;;;;;5038243;28;20028;-69
2024/02/09 15:20:01;;;;;;;2.97;1.48;;;;;;;;;;5039288;28;20021;-69
2024/02/09 15:22:26;;;;;;;7.57;1.63;;;;;;;;;;5041235;28;20021;-69
2024/02/09 15:24:51;;;;;;;2.33;1.08;;;;;;;;;;5030660;28;20025;-69
2024/02/09 15:27:18;;;;;;;3.33;1.20;;;;;;;;;;5042381;28;20013;-69
2024/02/09 15:29:45;;;;;;;2.08;1.48;;;;;;;;;;5036512;28;20530;-67
2024/02/09 15:32:13;;;;;;;2.22;1.10;;;;;;;;;;5036432;28;20024;-67
2024/02/09 15:34:44;;;;;;;5.03;2.08;;;;;;;;;;5031649;28;20049;-67
2024/02/09 15:37:10;;;;;;;6.68;1.75;;;;;;;;;;5032212;28;20095;-67
2024/02/09 15:39:35;;;;;;;8.18;1.77;;;;;;;;;;5032144;28;20052;-67
2024/02/09 15:42:00;;;;;;;1.17;0.73;;;;;;;;;;5031584;28;20071;-67
2024/02/09 15:44:25;;;;;;;5.32;1.58;;;;;;;;;;5045728;28;20453;-67
2024/02/09 15:46:53;;;;;;;4.30;2.03;;;;;;;;;;5040720;28;20025;-67
2024/02/09 15:49:19;;;;;;;2.50;1.63;;;;;;;;;;5030617;28;20071;-67
2024/02/09 15:51:45;;;;;;;3.63;1.73;;;;;;;;;;5029722;28;20105;-67
2024/02/09 15:54:11;;;;;;;3.00;1.17;;;;;;;;;;5031131;28;20694;-67
2024/02/09 15:56:37;;;;;;;7.63;1.63;;;;;;;;;;5037280;28;20016;-67
2024/02/09 15:59:03;;;;;;;7.43;1.52;;;;;;;;;;5033157;28;20022;-67
2024/02/09 16:01:35;;;;;;;6.47;1.40;;;;;;;;;;5037716;28;20028;-67
2024/02/09 16:04:00;;;;;;;3.35;1.38;;;;;;;;;;5033332;28;20531;-67
2024/02/09 16:06:25;;;;;;;8.63;2.73;;;;;;;;;;5045778;28;20119;-67
2024/02/09 16:08:51;;;;;;;12.00;2.67;;;;;;;;;;5028830;28;20274;-67
2024/02/09 16:11:17;;;;;;;31.08;8.68;;;;;;;;;;5030477;28;20020;-67
2024/02/09 16:13:43;;;;;;;5.28;2.17;;;;;;;;;;5037546;28;20391;-67
2024/02/09 16:16:08;;;;;;;11.23;2.53;;;;;;;;;;5043950;28;20116;-66
2024/02/09 16:18:35;;;;;;;20.83;6.22;;;;;;;;;;5033881;28;20561;-67
2024/02/09 16:21:01;;;;;;;39.55;10.63;;;;;;;;;;5034443;28;20441;-67